Time,TemperatureF,DewpointF,PressureIn,WindDirection,WindDirectionDegrees,WindSpeedMPH,WindSpeedGustMPH,Humidity,HourlyPrecipIn,Conditions,Clouds,dailyrainin,SolarRadiationWatts/m^2,SoftwareType,DateUTC
2013-01-26 00:01:00,39.0,36.0,-100.00,SW,227,3.0,10.0,89,-99.99,,,0.00,0.000000,,2013-01-26 07:01:00,
2013-01-26 00:11:00,39.0,36.0,-100.00,SW,227,3.0,10.0,89,-99.99,,,0.00,0.000000,,2013-01-26 07:11:00,
2013-01-26 00:41:00,38.0,35.0,-100.00,South,171,5.0,12.0,88,-99.99,,,0.00,0.000000,,2013-01-26 07:41:00,
2013-01-26 00:52:00,38.0,35.0,-100.00,South,171,5.0,12.0,88,-99.99,,,0.00,0.000000,,2013-01-26 07:52:00,
2013-01-26 01:02:00,38.0,35.0,-100.00,South,171,5.0,12.0,88,-99.99,,,0.00,0.000000,,2013-01-26 08:02:00,
2013-01-26 01:11:00,38.0,35.0,-100.00,South,171,5.0,12.0,88,-99.99,,,0.00,0.000000,,2013-01-26 08:11:00,
2013-01-26 01:42:00,39.0,35.0,-100.00,SSE,167,3.0,8.0,85,-99.99,,,0.00,0.000000,,2013-01-26 08:42:00,
2013-01-26 01:54:00,39.0,35.0,-100.00,SSE,167,3.0,8.0,85,-99.99,,,0.00,0.000000,,2013-01-26 08:54:00,
2013-01-26 02:02:00,39.0,35.0,-100.00,SSE,167,3.0,8.0,85,-99.99,,,0.00,0.000000,,2013-01-26 09:02:00,
2013-01-26 02:11:00,39.0,35.0,-100.00,SSE,167,3.0,8.0,85,-99.99,,,0.00,0.000000,,2013-01-26 09:11:00,
2013-01-26 02:42:00,40.0,34.0,-100.00,SSE,156,2.0,6.0,80,-99.99,,,-99.99,0.000000,,2013-01-26 09:42:00,
2013-01-26 02:52:00,40.0,34.0,-100.00,SSE,156,2.0,6.0,80,-99.99,,,-99.99,0.000000,,2013-01-26 09:52:00,
2013-01-26 03:01:00,40.0,34.0,-100.00,SSE,156,2.0,6.0,80,-99.99,,,-99.99,0.000000,,2013-01-26 10:01:00,
2013-01-26 03:11:00,40.0,34.0,-100.00,SSE,156,2.0,6.0,80,-99.99,,,-99.99,0.000000,,2013-01-26 10:11:00,
2013-01-26 03:42:00,36.0,34.0,-100.00,NW,321,1.0,4.0,91,-99.99,,,-99.99,0.000000,,2013-01-26 10:42:00,
2013-01-26 03:52:00,36.0,34.0,-100.00,NW,321,1.0,4.0,91,-99.99,,,-99.99,0.000000,,2013-01-26 10:52:00,
2013-01-26 04:01:00,36.0,34.0,-100.00,NW,321,1.0,4.0,91,-99.99,,,-99.99,0.000000,,2013-01-26 11:01:00,
2013-01-26 04:12:00,36.0,34.0,-100.00,NW,321,1.0,4.0,91,-99.99,,,-99.99,0.000000,,2013-01-26 11:12:00,
2013-01-26 04:42:00,38.0,34.0,-100.00,NNE,30,1.0,3.0,86,-99.99,,,-99.99,0.000000,,2013-01-26 11:42:00,
2013-01-26 04:52:00,38.0,34.0,-100.00,NNE,30,1.0,3.0,86,-99.99,,,-99.99,0.000000,,2013-01-26 11:52:00,
2013-01-26 05:02:00,38.0,34.0,-100.00,NNE,30,1.0,3.0,86,-99.99,,,-99.99,0.000000,,2013-01-26 12:02:00,
2013-01-26 05:12:00,38.0,34.0,-100.00,NNE,30,1.0,3.0,86,-99.99,,,-99.99,0.000000,,2013-01-26 12:12:00,
2013-01-26 05:42:00,37.0,34.0,-100.00,WNW,294,1.0,3.0,88,-99.99,,,-99.99,0.000000,,2013-01-26 12:42:00,
2013-01-26 05:53:00,37.0,34.0,-100.00,WNW,294,1.0,3.0,88,-99.99,,,-99.99,0.000000,,2013-01-26 12:53:00,
2013-01-26 06:03:00,37.0,34.0,-100.00,WNW,294,1.0,3.0,88,-99.99,,,-99.99,0.000000,,2013-01-26 13:03:00,
2013-01-26 06:12:00,37.0,34.0,-100.00,WNW,294,1.0,3.0,88,-99.99,,,-99.99,0.000000,,2013-01-26 13:12:00,
2013-01-26 06:42:00,36.0,33.0,-100.00,ESE,108,1.0,4.0,88,-99.99,,,-99.99,0.000000,,2013-01-26 13:42:00,
2013-01-26 06:53:00,36.0,33.0,-100.00,ESE,108,1.0,4.0,88,-99.99,,,-99.99,0.000000,,2013-01-26 13:53:00,
2013-01-26 07:02:00,36.0,33.0,-100.00,ESE,108,1.0,4.0,88,-99.99,,,-99.99,0.000000,,2013-01-26 14:02:00,
2013-01-26 07:11:00,36.0,33.0,-100.00,ESE,108,1.0,4.0,88,-99.99,,,-99.99,0.000000,,2013-01-26 14:11:00,
2013-01-26 07:42:00,33.0,33.0,-100.00,North,0,0.0,2.0,99,-99.99,,,-99.99,0.000000,,2013-01-26 14:42:00,
2013-01-26 07:53:00,33.0,33.0,-100.00,North,0,0.0,2.0,99,-99.99,,,-99.99,0.000000,,2013-01-26 14:53:00,
2013-01-26 08:02:00,33.0,33.0,-100.00,North,0,0.0,2.0,99,-99.99,,,-99.99,0.000000,,2013-01-26 15:02:00,
2013-01-26 08:12:00,33.0,33.0,-100.00,North,0,0.0,2.0,99,-99.99,,,-99.99,0.000000,,2013-01-26 15:12:00,
2013-01-26 08:43:00,37.0,33.0,-100.00,SSE,149,3.0,6.0,87,-99.99,,,0.00,3.490000,,2013-01-26 15:43:00,
2013-01-26 08:53:00,37.0,33.0,-100.00,SSE,149,3.0,6.0,87,-99.99,,,0.00,3.490000,,2013-01-26 15:53:00,
2013-01-26 09:02:00,37.0,33.0,-100.00,SSE,149,3.0,6.0,87,-99.99,,,0.00,3.490000,,2013-01-26 16:02:00,
2013-01-26 09:12:00,37.0,33.0,-100.00,SSE,149,3.0,6.0,87,-99.99,,,0.00,3.490000,,2013-01-26 16:12:00,
2013-01-26 09:32:00,34.0,34.0,-100.00,NNE,28,0.0,2.0,99,-99.99,,,0.00,38.000000,,2013-01-26 16:32:00,
2013-01-26 09:42:00,34.0,34.0,-100.00,NNE,28,0.0,2.0,99,-99.99,,,0.00,38.000000,,2013-01-26 16:42:00,
2013-01-26 09:53:00,34.0,34.0,-100.00,NNE,28,0.0,2.0,99,-99.99,,,0.00,38.000000,,2013-01-26 16:53:00,
2013-01-26 10:03:00,34.0,34.0,-100.00,NNE,28,0.0,2.0,99,-99.99,,,0.00,38.000000,,2013-01-26 17:03:00,
2013-01-26 10:12:00,34.0,34.0,-100.00,NNE,28,0.0,2.0,99,-99.99,,,0.00,38.000000,,2013-01-26 17:12:00,
2013-01-26 10:42:00,33.0,33.0,-100.00,NNW,344,1.0,3.0,100,-99.99,,,0.00,110.529999,,2013-01-26 17:42:00,
2013-01-26 10:53:00,33.0,33.0,-100.00,NNW,344,1.0,3.0,100,-99.99,,,0.00,110.529999,,2013-01-26 17:53:00,
2013-01-26 11:02:00,33.0,33.0,-100.00,NNW,344,1.0,3.0,100,-99.99,,,0.00,110.529999,,2013-01-26 18:02:00,
2013-01-26 11:11:00,33.0,33.0,-100.00,NNW,344,1.0,3.0,100,-99.99,,,0.00,110.529999,,2013-01-26 18:11:00,
2013-01-26 11:42:00,36.0,35.0,-100.00,NNW,343,3.0,9.0,99,-99.99,,,0.00,310.540009,,2013-01-26 18:42:00,
2013-01-26 11:52:00,36.0,35.0,-100.00,NNW,343,3.0,9.0,99,-99.99,,,0.00,310.540009,,2013-01-26 18:52:00,
2013-01-26 12:03:00,36.0,35.0,-100.00,NNW,343,3.0,9.0,99,-99.99,,,0.00,310.540009,,2013-01-26 19:03:00,
2013-01-26 12:11:00,36.0,35.0,-100.00,NNW,343,3.0,9.0,99,-99.99,,,0.00,310.540009,,2013-01-26 19:11:00,
2013-01-26 12:42:00,35.0,35.0,-100.00,NNW,342,3.0,7.0,100,-99.99,,,0.00,56.250000,,2013-01-26 19:42:00,
2013-01-26 12:52:00,35.0,35.0,-100.00,NNW,342,3.0,7.0,100,-99.99,,,0.00,56.250000,,2013-01-26 19:52:00,
2013-01-26 13:02:00,35.0,35.0,-100.00,NNW,342,3.0,7.0,100,-99.99,,,0.00,56.250000,,2013-01-26 20:02:00,
2013-01-26 13:11:00,35.0,35.0,-100.00,NNW,342,3.0,7.0,100,-99.99,,,0.00,56.250000,,2013-01-26 20:11:00,
2013-01-26 13:42:00,38.0,37.0,-100.00,ENE,71,5.0,10.0,96,-99.99,,,0.00,121.680000,,2013-01-26 20:42:00,
2013-01-26 13:52:00,38.0,37.0,-100.00,ENE,71,5.0,10.0,96,-99.99,,,0.00,121.680000,,2013-01-26 20:52:00,
2013-01-26 14:02:00,38.0,37.0,-100.00,ENE,71,5.0,10.0,96,-99.99,,,0.00,121.680000,,2013-01-26 21:02:00,
2013-01-26 14:12:00,38.0,37.0,-100.00,ENE,71,5.0,10.0,96,-99.99,,,0.00,121.680000,,2013-01-26 21:12:00,
2013-01-26 14:32:00,38.0,36.0,-100.00,North,358,4.0,6.0,94,-99.99,,,0.00,85.190002,,2013-01-26 21:32:00,
2013-01-26 14:42:00,38.0,36.0,-100.00,North,358,4.0,6.0,94,-99.99,,,0.00,85.190002,,2013-01-26 21:42:00,
2013-01-26 14:52:00,38.0,36.0,-100.00,North,358,4.0,6.0,94,-99.99,,,0.00,85.190002,,2013-01-26 21:52:00,
2013-01-26 15:01:00,38.0,36.0,-100.00,North,358,4.0,6.0,94,-99.99,,,0.00,85.190002,,2013-01-26 22:01:00,
2013-01-26 15:11:00,38.0,36.0,-100.00,North,358,4.0,6.0,94,-99.99,,,0.00,85.190002,,2013-01-26 22:11:00,
2013-01-26 15:42:00,38.0,36.0,-100.00,NNE,17,1.0,4.0,92,-99.99,,,0.00,138.070007,,2013-01-26 22:42:00,
2013-01-26 15:52:00,38.0,36.0,-100.00,NNE,17,1.0,4.0,92,-99.99,,,0.00,138.070007,,2013-01-26 22:52:00,
2013-01-26 16:01:00,38.0,36.0,-100.00,NNE,17,1.0,4.0,92,-99.99,,,0.00,138.070007,,2013-01-26 23:01:00,
2013-01-26 16:11:00,38.0,36.0,-100.00,NNE,17,1.0,4.0,92,-99.99,,,0.00,138.070007,,2013-01-26 23:11:00,
2013-01-26 16:41:00,37.0,35.0,-100.00,NNW,327,2.0,6.0,93,-99.99,,,0.00,78.099998,,2013-01-26 23:41:00,
2013-01-26 16:52:00,37.0,35.0,-100.00,NNW,327,2.0,6.0,93,-99.99,,,0.00,78.099998,,2013-01-26 23:52:00,
2013-01-26 17:02:00,37.0,35.0,-100.00,NNW,327,2.0,6.0,93,-99.99,,,0.00,78.099998,,2013-01-27 00:02:00,
2013-01-26 17:11:00,37.0,35.0,-100.00,NNW,327,2.0,6.0,93,-99.99,,,0.00,78.099998,,2013-01-27 00:11:00,
2013-01-26 17:41:00,36.0,33.0,-100.00,WSW,250,0.0,2.0,90,-99.99,,,0.00,11.270000,,2013-01-27 00:41:00,
2013-01-26 17:52:00,36.0,33.0,-100.00,WSW,250,0.0,2.0,90,-99.99,,,0.00,11.270000,,2013-01-27 00:52:00,
2013-01-26 18:01:00,36.0,33.0,-100.00,WSW,250,0.0,2.0,90,-99.99,,,0.00,11.270000,,2013-01-27 01:01:00,
2013-01-26 18:11:00,36.0,33.0,-100.00,WSW,250,0.0,2.0,90,-99.99,,,0.00,11.270000,,2013-01-27 01:11:00,
2013-01-26 18:32:00,35.0,33.0,-100.00,East,98,3.0,4.0,95,-99.99,,,0.00,0.120000,,2013-01-27 01:32:00,
2013-01-26 18:41:00,35.0,33.0,-100.00,East,98,3.0,4.0,95,-99.99,,,0.00,0.120000,,2013-01-27 01:41:00,
2013-01-26 18:52:00,35.0,33.0,-100.00,East,98,3.0,4.0,95,-99.99,,,0.00,0.120000,,2013-01-27 01:52:00,
2013-01-26 19:01:00,35.0,33.0,-100.00,East,98,3.0,4.0,95,-99.99,,,0.00,0.120000,,2013-01-27 02:01:00,
2013-01-26 19:11:00,35.0,33.0,-100.00,East,98,3.0,4.0,95,-99.99,,,0.00,0.120000,,2013-01-27 02:11:00,
2013-01-26 19:41:00,33.0,33.0,-100.00,NW,318,0.0,3.0,99,-99.99,,,0.00,0.000000,,2013-01-27 02:41:00,
2013-01-26 19:52:00,33.0,33.0,-100.00,NW,318,0.0,3.0,99,-99.99,,,0.00,0.000000,,2013-01-27 02:52:00,
2013-01-26 20:01:00,33.0,33.0,-100.00,NW,318,0.0,3.0,99,-99.99,,,0.00,0.000000,,2013-01-27 03:01:00,
2013-01-26 20:11:00,33.0,33.0,-100.00,NW,318,0.0,3.0,99,-99.99,,,0.00,0.000000,,2013-01-27 03:11:00,
2013-01-26 20:42:00,33.0,33.0,-100.00,SE,127,1.0,2.0,100,-99.99,,,0.00,0.000000,,2013-01-27 03:42:00,
2013-01-26 20:52:00,33.0,33.0,-100.00,SE,127,1.0,2.0,100,-99.99,,,0.00,0.000000,,2013-01-27 03:52:00,
2013-01-26 21:01:00,33.0,33.0,-100.00,SE,127,1.0,2.0,100,-99.99,,,0.00,0.000000,,2013-01-27 04:01:00,
2013-01-26 21:11:00,33.0,33.0,-100.00,SE,127,1.0,2.0,100,-99.99,,,0.00,0.000000,,2013-01-27 04:11:00,
2013-01-26 21:31:00,33.0,33.0,-100.00,North,0,0.0,0.0,100,-99.99,,,0.00,0.000000,,2013-01-27 04:31:00,
2013-01-26 21:41:00,33.0,33.0,-100.00,North,0,0.0,0.0,100,-99.99,,,0.00,0.000000,,2013-01-27 04:41:00,
2013-01-26 21:52:00,33.0,33.0,-100.00,North,0,0.0,0.0,100,-99.99,,,0.00,0.000000,,2013-01-27 04:52:00,
2013-01-26 22:03:00,33.0,33.0,-100.00,North,0,0.0,0.0,100,-99.99,,,0.00,0.000000,,2013-01-27 05:03:00,
2013-01-26 22:11:00,33.0,33.0,-100.00,North,0,0.0,0.0,100,-99.99,,,0.00,0.000000,,2013-01-27 05:11:00,
2013-01-26 22:41:00,32.0,32.0,-100.00,North,0,0.0,0.0,100,-99.99,,,0.00,0.000000,,2013-01-27 05:41:00,
2013-01-26 22:52:00,32.0,32.0,-100.00,North,0,0.0,0.0,100,-99.99,,,0.00,0.000000,,2013-01-27 05:52:00,
2013-01-26 23:01:00,32.0,32.0,-100.00,North,0,0.0,0.0,100,-99.99,,,0.00,0.000000,,2013-01-27 06:01:00,
2013-01-26 23:11:00,32.0,32.0,-100.00,North,0,0.0,0.0,100,-99.99,,,0.00,0.000000,,2013-01-27 06:11:00,
2013-01-26 23:31:00,32.0,32.0,-100.00,NE,43,0.0,2.0,100,-99.99,,,0.00,0.000000,,2013-01-27 06:31:00,
2013-01-26 23:41:00,32.0,32.0,-100.00,NE,43,0.0,2.0,100,-99.99,,,0.00,0.000000,,2013-01-27 06:41:00,
2013-01-26 23:52:00,32.0,32.0,-100.00,NE,43,0.0,2.0,100,-99.99,,,0.00,0.000000,,2013-01-27 06:52:00,